パリ/シャルル・ド・ゴール の空港の天気 - METARとTAF

シャルル・ド・ゴール国際空港(パリ) ( LFPG / CDG ) - フランス Paris
飛行場実況気象(Metar)
観測時間05/27 21:00 CEST (05/27 19:00 UTC)
風向・風速不定 2m/s
視程10km以上
天気現象
なし
気温26℃
湿度58%
気圧1016hPa
METARLFPG 271900Z VRB04KT CAVOK 26/17 Q1016 NOSIG
過去の天気等 Google飛行場航空写真 Wunderground天気予報

過去48時間のMETAR

飛行場予報(TAF)
発表時間: 5/27 19:00 CEST (5/27 17:00 UTC)
予報対象時間: 27日20時 CEST ~ 29日2時 CEST
風向・風速北北東 5m/s
視程10km以上
なし
28日16時 CEST ~ 28日18時 CEST に徐々に
風向・風速東南東 3m/s
TAF LFPG 271700Z 2718/2824 02010KT CAVOK
BECMG 2814/2816 12005KT TX32/2815Z TN18/2804Z